sensor_id;sensor_type;location;lat;lon;timestamp;P1;durP1;ratioP1;P2;durP2;ratioP2
33184;SDS011;19550;42.872;25.494;2023-03-20T00:00:24;22.80;;;9.82;;
33184;SDS011;19550;42.872;25.494;2023-03-20T00:02:57;17.48;;;8.77;;
33184;SDS011;19550;42.872;25.494;2023-03-20T00:05:24;30.75;;;13.27;;
33184;SDS011;19550;42.872;25.494;2023-03-20T00:07:52;15.38;;;7.90;;
33184;SDS011;19550;42.872;25.494;2023-03-20T00:10:20;23.25;;;10.10;;
33184;SDS011;19550;42.872;25.494;2023-03-20T00:12:48;42.92;;;16.70;;
33184;SDS011;19550;42.872;25.494;2023-03-20T00:15:25;25.92;;;12.43;;
33184;SDS011;19550;42.872;25.494;2023-03-20T00:17:55;19.63;;;10.23;;
33184;SDS011;19550;42.872;25.494;2023-03-20T00:20:22;19.17;;;10.35;;
33184;SDS011;19550;42.872;25.494;2023-03-20T00:22:49;12.80;;;7.50;;
33184;SDS011;19550;42.872;25.494;2023-03-20T00:25:17;18.02;;;9.68;;
33184;SDS011;19550;42.872;25.494;2023-03-20T00:27:45;16.23;;;9.45;;
33184;SDS011;19550;42.872;25.494;2023-03-20T00:30:17;22.50;;;10.50;;
33184;SDS011;19550;42.872;25.494;2023-03-20T00:32:48;21.80;;;11.38;;
33184;SDS011;19550;42.872;25.494;2023-03-20T00:35:20;16.10;;;9.77;;
33184;SDS011;19550;42.872;25.494;2023-03-20T00:37:49;18.77;;;10.93;;
33184;SDS011;19550;42.872;25.494;2023-03-20T00:40:17;18.00;;;10.20;;
33184;SDS011;19550;42.872;25.494;2023-03-20T00:42:45;21.25;;;10.32;;
33184;SDS011;19550;42.872;25.494;2023-03-20T00:45:16;18.13;;;10.18;;
33184;SDS011;19550;42.872;25.494;2023-03-20T00:47:48;18.10;;;9.90;;
33184;SDS011;19550;42.872;25.494;2023-03-20T00:50:18;20.23;;;10.27;;
33184;SDS011;19550;42.872;25.494;2023-03-20T00:52:46;16.15;;;9.13;;
33184;SDS011;19550;42.872;25.494;2023-03-20T00:55:13;13.65;;;8.02;;
33184;SDS011;19550;42.872;25.494;2023-03-20T00:57:42;15.05;;;8.60;;
33184;SDS011;19550;42.872;25.494;2023-03-20T01:00:17;16.45;;;8.77;;
33184;SDS011;19550;42.872;25.494;2023-03-20T01:02:49;14.23;;;7.90;;
33184;SDS011;19550;42.872;25.494;2023-03-20T01:05:17;11.27;;;7.32;;
33184;SDS011;19550;42.872;25.494;2023-03-20T01:07:44;17.70;;;8.85;;
33184;SDS011;19550;42.872;25.494;2023-03-20T01:10:12;13.00;;;7.88;;
33184;SDS011;19550;42.872;25.494;2023-03-20T01:12:40;13.77;;;7.63;;
33184;SDS011;19550;42.872;25.494;2023-03-20T01:15:15;13.63;;;7.60;;
33184;SDS011;19550;42.872;25.494;2023-03-20T01:17:44;11.75;;;7.13;;
33184;SDS011;19550;42.872;25.494;2023-03-20T01:20:18;10.98;;;6.50;;
33184;SDS011;19550;42.872;25.494;2023-03-20T01:22:47;13.68;;;7.40;;
33184;SDS011;19550;42.872;25.494;2023-03-20T01:25:14;12.10;;;6.80;;
33184;SDS011;19550;42.872;25.494;2023-03-20T01:27:42;15.90;;;7.70;;
33184;SDS011;19550;42.872;25.494;2023-03-20T01:30:19;13.85;;;7.07;;
33184;SDS011;19550;42.872;25.494;2023-03-20T01:32:48;13.18;;;7.20;;
33184;SDS011;19550;42.872;25.494;2023-03-20T01:35:17;12.30;;;6.63;;
33184;SDS011;19550;42.872;25.494;2023-03-20T01:37:46;16.00;;;8.48;;
33184;SDS011;19550;42.872;25.494;2023-03-20T01:40:21;16.00;;;7.63;;
33184;SDS011;19550;42.872;25.494;2023-03-20T01:42:56;12.60;;;6.82;;
33184;SDS011;19550;42.872;25.494;2023-03-20T01:45:23;15.30;;;8.40;;
33184;SDS011;19550;42.872;25.494;2023-03-20T01:47:55;15.95;;;7.97;;
33184;SDS011;19550;42.872;25.494;2023-03-20T01:50:31;13.80;;;7.50;;
33184;SDS011;19550;42.872;25.494;2023-03-20T01:53:01;12.32;;;6.85;;
33184;SDS011;19550;42.872;25.494;2023-03-20T01:55:32;15.75;;;7.55;;
33184;SDS011;19550;42.872;25.494;2023-03-20T01:58:02;12.90;;;6.88;;
33184;SDS011;19550;42.872;25.494;2023-03-20T02:00:32;11.88;;;7.38;;
33184;SDS011;19550;42.872;25.494;2023-03-20T02:03:00;14.10;;;6.68;;
33184;SDS011;19550;42.872;25.494;2023-03-20T02:05:27;13.23;;;7.13;;
33184;SDS011;19550;42.872;25.494;2023-03-20T02:07:59;11.90;;;6.68;;
33184;SDS011;19550;42.872;25.494;2023-03-20T02:10:48;15.98;;;6.90;;
33184;SDS011;19550;42.872;25.494;2023-03-20T02:13:16;11.27;;;6.53;;
33184;SDS011;19550;42.872;25.494;2023-03-20T02:15:56;13.55;;;7.47;;
33184;SDS011;19550;42.872;25.494;2023-03-20T02:18:25;11.90;;;6.90;;
33184;SDS011;19550;42.872;25.494;2023-03-20T02:21:02;11.73;;;6.70;;
33184;SDS011;19550;42.872;25.494;2023-03-20T02:27:05;10.75;;;6.15;;
33184;SDS011;19550;42.872;25.494;2023-03-20T02:36:02;10.57;;;6.47;;
33184;SDS011;19550;42.872;25.494;2023-03-20T02:38:53;12.60;;;5.95;;
33184;SDS011;19550;42.872;25.494;2023-03-20T02:41:41;10.52;;;5.75;;
33184;SDS011;19550;42.872;25.494;2023-03-20T02:44:12;11.57;;;5.85;;
33184;SDS011;19550;42.872;25.494;2023-03-20T02:46:49;7.45;;;5.22;;
33184;SDS011;19550;42.872;25.494;2023-03-20T02:49:23;10.52;;;6.03;;
33184;SDS011;19550;42.872;25.494;2023-03-20T02:52:03;10.23;;;6.13;;
33184;SDS011;19550;42.872;25.494;2023-03-20T02:54:36;23.13;;;10.20;;
33184;SDS011;19550;42.872;25.494;2023-03-20T02:57:07;21.40;;;8.73;;
33184;SDS011;19550;42.872;25.494;2023-03-20T02:59:42;15.20;;;6.22;;
33184;SDS011;19550;42.872;25.494;2023-03-20T03:02:17;12.95;;;6.90;;
33184;SDS011;19550;42.872;25.494;2023-03-20T03:04:48;8.95;;;5.78;;
33184;SDS011;19550;42.872;25.494;2023-03-20T03:07:19;12.95;;;7.22;;
33184;SDS011;19550;42.872;25.494;2023-03-20T03:09:52;13.35;;;7.10;;
33184;SDS011;19550;42.872;25.494;2023-03-20T03:12:25;19.58;;;8.80;;
33184;SDS011;19550;42.872;25.494;2023-03-20T03:14:56;19.02;;;9.50;;
33184;SDS011;19550;42.872;25.494;2023-03-20T03:17:27;16.15;;;8.52;;
33184;SDS011;19550;42.872;25.494;2023-03-20T03:19:58;13.90;;;8.73;;
33184;SDS011;19550;42.872;25.494;2023-03-20T03:22:29;11.38;;;6.15;;
33184;SDS011;19550;42.872;25.494;2023-03-20T03:24:59;15.07;;;7.63;;
33184;SDS011;19550;42.872;25.494;2023-03-20T03:27:28;12.57;;;7.20;;
33184;SDS011;19550;42.872;25.494;2023-03-20T03:30:02;14.65;;;7.15;;
33184;SDS011;19550;42.872;25.494;2023-03-20T03:32:34;14.50;;;6.55;;
33184;SDS011;19550;42.872;25.494;2023-03-20T03:35:03;11.77;;;6.97;;
33184;SDS011;19550;42.872;25.494;2023-03-20T03:37:38;12.32;;;6.75;;
33184;SDS011;19550;42.872;25.494;2023-03-20T03:40:15;12.75;;;6.72;;
33184;SDS011;19550;42.872;25.494;2023-03-20T03:42:51;12.48;;;7.63;;
33184;SDS011;19550;42.872;25.494;2023-03-20T03:45:24;13.05;;;6.60;;
33184;SDS011;19550;42.872;25.494;2023-03-20T03:47:58;15.30;;;8.77;;
33184;SDS011;19550;42.872;25.494;2023-03-20T03:50:30;20.85;;;11.65;;
33184;SDS011;19550;42.872;25.494;2023-03-20T03:53:01;42.80;;;16.23;;
33184;SDS011;19550;42.872;25.494;2023-03-20T03:55:35;43.60;;;16.50;;
33184;SDS011;19550;42.872;25.494;2023-03-20T03:58:06;36.10;;;14.63;;
33184;SDS011;19550;42.872;25.494;2023-03-20T04:00:37;37.80;;;18.23;;
33184;SDS011;19550;42.872;25.494;2023-03-20T04:03:07;46.17;;;18.98;;
33184;SDS011;19550;42.872;25.494;2023-03-20T04:05:36;64.75;;;23.65;;
33184;SDS011;19550;42.872;25.494;2023-03-20T04:08:06;52.83;;;21.23;;
33184;SDS011;19550;42.872;25.494;2023-03-20T04:10:34;38.63;;;16.58;;
33184;SDS011;19550;42.872;25.494;2023-03-20T04:13:01;77.38;;;24.17;;
33184;SDS011;19550;42.872;25.494;2023-03-20T04:15:28;59.78;;;20.88;;
33184;SDS011;19550;42.872;25.494;2023-03-20T04:17:55;42.00;;;18.60;;
33184;SDS011;19550;42.872;25.494;2023-03-20T04:20:21;28.95;;;13.98;;
33184;SDS011;19550;42.872;25.494;2023-03-20T04:22:48;40.50;;;17.45;;
33184;SDS011;19550;42.872;25.494;2023-03-20T04:25:18;46.53;;;19.75;;
33184;SDS011;19550;42.872;25.494;2023-03-20T04:27:47;29.63;;;14.65;;
33184;SDS011;19550;42.872;25.494;2023-03-20T04:30:15;36.37;;;18.77;;
33184;SDS011;19550;42.872;25.494;2023-03-20T04:32:42;44.13;;;21.98;;
33184;SDS011;19550;42.872;25.494;2023-03-20T04:35:09;36.90;;;19.67;;
33184;SDS011;19550;42.872;25.494;2023-03-20T04:37:36;40.60;;;21.85;;
33184;SDS011;19550;42.872;25.494;2023-03-20T04:40:03;36.38;;;19.95;;
33184;SDS011;19550;42.872;25.494;2023-03-20T04:42:31;29.52;;;15.40;;
33184;SDS011;19550;42.872;25.494;2023-03-20T04:44:59;33.20;;;16.92;;
33184;SDS011;19550;42.872;25.494;2023-03-20T04:47:26;23.30;;;13.10;;
33184;SDS011;19550;42.872;25.494;2023-03-20T04:49:52;22.63;;;12.30;;
33184;SDS011;19550;42.872;25.494;2023-03-20T04:52:19;25.80;;;13.35;;
33184;SDS011;19550;42.872;25.494;2023-03-20T04:54:46;22.65;;;12.98;;
33184;SDS011;19550;42.872;25.494;2023-03-20T04:57:13;26.55;;;13.05;;
33184;SDS011;19550;42.872;25.494;2023-03-20T04:59:40;21.67;;;12.50;;
33184;SDS011;19550;42.872;25.494;2023-03-20T05:02:08;30.27;;;15.88;;
33184;SDS011;19550;42.872;25.494;2023-03-20T05:04:39;27.70;;;14.98;;
33184;SDS011;19550;42.872;25.494;2023-03-20T05:07:06;35.70;;;18.10;;
33184;SDS011;19550;42.872;25.494;2023-03-20T05:09:32;45.97;;;24.00;;
33184;SDS011;19550;42.872;25.494;2023-03-20T05:11:59;43.67;;;21.92;;
33184;SDS011;19550;42.872;25.494;2023-03-20T05:14:26;49.88;;;24.45;;
33184;SDS011;19550;42.872;25.494;2023-03-20T05:16:53;78.53;;;35.60;;
33184;SDS011;19550;42.872;25.494;2023-03-20T05:19:21;111.32;;;50.10;;
33184;SDS011;19550;42.872;25.494;2023-03-20T05:21:48;95.78;;;45.20;;
33184;SDS011;19550;42.872;25.494;2023-03-20T05:24:15;75.93;;;38.15;;
33184;SDS011;19550;42.872;25.494;2023-03-20T05:26:42;68.13;;;33.85;;
33184;SDS011;19550;42.872;25.494;2023-03-20T05:29:09;60.17;;;30.20;;
33184;SDS011;19550;42.872;25.494;2023-03-20T05:31:36;66.10;;;31.30;;
33184;SDS011;19550;42.872;25.494;2023-03-20T05:34:02;61.13;;;31.88;;
33184;SDS011;19550;42.872;25.494;2023-03-20T05:36:31;58.00;;;30.50;;
33184;SDS011;19550;42.872;25.494;2023-03-20T05:38:57;50.20;;;28.05;;
33184;SDS011;19550;42.872;25.494;2023-03-20T05:41:24;47.38;;;26.65;;
33184;SDS011;19550;42.872;25.494;2023-03-20T05:43:51;46.35;;;24.85;;
33184;SDS011;19550;42.872;25.494;2023-03-20T05:46:18;45.88;;;26.55;;
33184;SDS011;19550;42.872;25.494;2023-03-20T05:48:44;58.25;;;31.80;;
33184;SDS011;19550;42.872;25.494;2023-03-20T05:51:11;56.45;;;30.38;;
33184;SDS011;19550;42.872;25.494;2023-03-20T05:53:39;46.50;;;22.45;;
33184;SDS011;19550;42.872;25.494;2023-03-20T05:56:06;35.67;;;19.75;;
33184;SDS011;19550;42.872;25.494;2023-03-20T05:58:34;21.73;;;13.85;;
33184;SDS011;19550;42.872;25.494;2023-03-20T06:01:01;26.42;;;16.92;;
33184;SDS011;19550;42.872;25.494;2023-03-20T06:03:28;26.13;;;15.77;;
33184;SDS011;19550;42.872;25.494;2023-03-20T06:05:55;28.80;;;17.65;;
33184;SDS011;19550;42.872;25.494;2023-03-20T06:08:22;34.78;;;21.15;;
33184;SDS011;19550;42.872;25.494;2023-03-20T06:10:50;36.95;;;21.98;;
33184;SDS011;19550;42.872;25.494;2023-03-20T06:13:18;24.40;;;16.65;;
33184;SDS011;19550;42.872;25.494;2023-03-20T06:15:45;31.67;;;18.80;;
33184;SDS011;19550;42.872;25.494;2023-03-20T06:18:11;34.15;;;18.77;;
33184;SDS011;19550;42.872;25.494;2023-03-20T06:20:38;31.90;;;18.20;;
33184;SDS011;19550;42.872;25.494;2023-03-20T06:23:05;25.92;;;15.60;;
33184;SDS011;19550;42.872;25.494;2023-03-20T06:25:32;20.42;;;13.38;;
33184;SDS011;19550;42.872;25.494;2023-03-20T06:28:00;27.30;;;15.13;;
33184;SDS011;19550;42.872;25.494;2023-03-20T06:30:27;25.20;;;14.73;;
33184;SDS011;19550;42.872;25.494;2023-03-20T06:32:53;31.38;;;20.67;;
33184;SDS011;19550;42.872;25.494;2023-03-20T06:35:20;27.08;;;14.55;;
33184;SDS011;19550;42.872;25.494;2023-03-20T06:37:47;25.55;;;15.52;;
33184;SDS011;19550;42.872;25.494;2023-03-20T06:42:41;30.95;;;17.50;;
33184;SDS011;19550;42.872;25.494;2023-03-20T06:45:10;38.13;;;19.13;;
33184;SDS011;19550;42.872;25.494;2023-03-20T06:47:37;31.90;;;18.67;;
33184;SDS011;19550;42.872;25.494;2023-03-20T06:50:04;34.35;;;18.67;;
33184;SDS011;19550;42.872;25.494;2023-03-20T06:52:34;30.73;;;18.48;;
33184;SDS011;19550;42.872;25.494;2023-03-20T06:55:00;25.20;;;15.75;;
33184;SDS011;19550;42.872;25.494;2023-03-20T06:57:27;39.50;;;19.83;;
33184;SDS011;19550;42.872;25.494;2023-03-20T06:59:54;25.73;;;16.80;;
33184;SDS011;19550;42.872;25.494;2023-03-20T07:02:22;24.38;;;14.95;;
33184;SDS011;19550;42.872;25.494;2023-03-20T07:04:49;20.20;;;12.88;;
33184;SDS011;19550;42.872;25.494;2023-03-20T07:07:16;25.40;;;16.05;;
33184;SDS011;19550;42.872;25.494;2023-03-20T07:09:43;24.58;;;16.77;;
33184;SDS011;19550;42.872;25.494;2023-03-20T07:12:10;26.58;;;17.15;;
33184;SDS011;19550;42.872;25.494;2023-03-20T07:14:39;28.10;;;15.27;;
33184;SDS011;19550;42.872;25.494;2023-03-20T07:17:06;26.40;;;16.35;;
33184;SDS011;19550;42.872;25.494;2023-03-20T07:19:35;20.58;;;11.98;;
33184;SDS011;19550;42.872;25.494;2023-03-20T07:22:03;15.18;;;10.35;;
33184;SDS011;19550;42.872;25.494;2023-03-20T07:24:31;20.40;;;11.25;;
33184;SDS011;19550;42.872;25.494;2023-03-20T07:26:58;19.92;;;11.52;;
33184;SDS011;19550;42.872;25.494;2023-03-20T07:29:25;17.33;;;12.18;;
33184;SDS011;19550;42.872;25.494;2023-03-20T07:31:52;18.38;;;9.70;;
33184;SDS011;19550;42.872;25.494;2023-03-20T07:34:19;10.30;;;7.75;;
33184;SDS011;19550;42.872;25.494;2023-03-20T07:36:47;10.57;;;7.63;;
33184;SDS011;19550;42.872;25.494;2023-03-20T07:39:14;17.13;;;9.50;;
33184;SDS011;19550;42.872;25.494;2023-03-20T07:41:41;22.50;;;11.75;;
33184;SDS011;19550;42.872;25.494;2023-03-20T07:44:08;19.08;;;12.60;;
33184;SDS011;19550;42.872;25.494;2023-03-20T07:46:35;18.40;;;12.50;;
33184;SDS011;19550;42.872;25.494;2023-03-20T07:49:02;11.30;;;8.27;;
33184;SDS011;19550;42.872;25.494;2023-03-20T07:51:29;12.65;;;7.15;;
33184;SDS011;19550;42.872;25.494;2023-03-20T07:53:58;8.32;;;5.85;;
33184;SDS011;19550;42.872;25.494;2023-03-20T07:56:24;9.20;;;5.70;;
33184;SDS011;19550;42.872;25.494;2023-03-20T07:58:51;9.52;;;5.30;;
33184;SDS011;19550;42.872;25.494;2023-03-20T08:01:18;20.13;;;6.95;;
33184;SDS011;19550;42.872;25.494;2023-03-20T08:03:45;12.05;;;6.35;;
33184;SDS011;19550;42.872;25.494;2023-03-20T08:06:11;14.80;;;8.07;;
33184;SDS011;19550;42.872;25.494;2023-03-20T08:08:38;12.45;;;6.97;;
33184;SDS011;19550;42.872;25.494;2023-03-20T08:11:06;10.38;;;7.15;;
33184;SDS011;19550;42.872;25.494;2023-03-20T08:13:33;10.13;;;7.00;;
33184;SDS011;19550;42.872;25.494;2023-03-20T08:16:00;9.18;;;5.20;;
33184;SDS011;19550;42.872;25.494;2023-03-20T08:18:27;8.32;;;5.63;;
33184;SDS011;19550;42.872;25.494;2023-03-20T08:20:54;7.22;;;5.28;;
33184;SDS011;19550;42.872;25.494;2023-03-20T08:23:21;10.43;;;6.40;;
33184;SDS011;19550;42.872;25.494;2023-03-20T08:25:48;11.43;;;6.78;;
33184;SDS011;19550;42.872;25.494;2023-03-20T08:28:17;7.57;;;4.63;;
33184;SDS011;19550;42.872;25.494;2023-03-20T08:30:44;5.45;;;3.63;;
33184;SDS011;19550;42.872;25.494;2023-03-20T08:33:11;5.53;;;3.70;;
33184;SDS011;19550;42.872;25.494;2023-03-20T08:35:39;7.68;;;3.97;;
33184;SDS011;19550;42.872;25.494;2023-03-20T08:38:05;5.47;;;3.75;;
33184;SDS011;19550;42.872;25.494;2023-03-20T08:40:32;5.57;;;3.83;;
33184;SDS011;19550;42.872;25.494;2023-03-20T08:42:59;4.75;;;3.50;;
33184;SDS011;19550;42.872;25.494;2023-03-20T08:45:27;6.28;;;3.92;;
33184;SDS011;19550;42.872;25.494;2023-03-20T08:47:54;6.20;;;3.60;;
33184;SDS011;19550;42.872;25.494;2023-03-20T08:50:21;6.60;;;3.75;;
33184;SDS011;19550;42.872;25.494;2023-03-20T08:52:48;5.20;;;3.42;;
33184;SDS011;19550;42.872;25.494;2023-03-20T08:55:15;10.25;;;4.72;;
33184;SDS011;19550;42.872;25.494;2023-03-20T08:57:42;5.03;;;3.70;;
33184;SDS011;19550;42.872;25.494;2023-03-20T09:00:10;6.80;;;3.70;;
33184;SDS011;19550;42.872;25.494;2023-03-20T09:02:39;6.75;;;3.92;;
33184;SDS011;19550;42.872;25.494;2023-03-20T09:05:07;4.78;;;3.45;;
33184;SDS011;19550;42.872;25.494;2023-03-20T09:07:34;7.43;;;3.65;;
33184;SDS011;19550;42.872;25.494;2023-03-20T09:10:02;5.18;;;3.80;;
33184;SDS011;19550;42.872;25.494;2023-03-20T09:12:29;5.85;;;3.40;;
33184;SDS011;19550;42.872;25.494;2023-03-20T09:14:57;6.57;;;3.60;;
33184;SDS011;19550;42.872;25.494;2023-03-20T09:17:24;7.65;;;3.42;;
33184;SDS011;19550;42.872;25.494;2023-03-20T09:19:52;5.70;;;3.67;;
33184;SDS011;19550;42.872;25.494;2023-03-20T09:22:19;6.10;;;3.78;;
33184;SDS011;19550;42.872;25.494;2023-03-20T09:24:45;4.88;;;3.30;;
33184;SDS011;19550;42.872;25.494;2023-03-20T09:27:12;9.65;;;3.60;;
33184;SDS011;19550;42.872;25.494;2023-03-20T09:29:39;6.20;;;4.00;;
33184;SDS011;19550;42.872;25.494;2023-03-20T09:32:06;4.50;;;3.63;;
33184;SDS011;19550;42.872;25.494;2023-03-20T09:34:35;5.53;;;4.27;;
33184;SDS011;19550;42.872;25.494;2023-03-20T09:37:03;4.90;;;3.30;;
33184;SDS011;19550;42.872;25.494;2023-03-20T09:39:30;4.55;;;3.90;;
33184;SDS011;19550;42.872;25.494;2023-03-20T09:41:58;14.07;;;4.07;;
33184;SDS011;19550;42.872;25.494;2023-03-20T09:44:33;5.10;;;3.83;;
33184;SDS011;19550;42.872;25.494;2023-03-20T09:47:12;6.18;;;3.75;;
33184;SDS011;19550;42.872;25.494;2023-03-20T09:49:47;4.18;;;3.03;;
33184;SDS011;19550;42.872;25.494;2023-03-20T09:52:27;4.38;;;3.50;;
33184;SDS011;19550;42.872;25.494;2023-03-20T09:54:58;4.13;;;3.38;;
33184;SDS011;19550;42.872;25.494;2023-03-20T09:57:31;4.95;;;3.25;;
33184;SDS011;19550;42.872;25.494;2023-03-20T10:00:05;5.90;;;3.00;;
33184;SDS011;19550;42.872;25.494;2023-03-20T10:02:39;4.35;;;3.47;;
33184;SDS011;19550;42.872;25.494;2023-03-20T10:05:14;5.53;;;3.15;;
33184;SDS011;19550;42.872;25.494;2023-03-20T10:07:46;5.18;;;3.58;;
33184;SDS011;19550;42.872;25.494;2023-03-20T10:10:13;6.07;;;3.65;;
33184;SDS011;19550;42.872;25.494;2023-03-20T10:12:54;4.97;;;3.13;;
33184;SDS011;19550;42.872;25.494;2023-03-20T10:15:34;8.52;;;3.78;;
33184;SDS011;19550;42.872;25.494;2023-03-20T10:18:10;5.78;;;3.90;;
33184;SDS011;19550;42.872;25.494;2023-03-20T10:20:47;5.38;;;3.60;;
33184;SDS011;19550;42.872;25.494;2023-03-20T10:23:23;4.88;;;3.28;;
33184;SDS011;19550;42.872;25.494;2023-03-20T10:25:58;5.47;;;3.03;;
33184;SDS011;19550;42.872;25.494;2023-03-20T10:28:30;6.72;;;3.60;;
33184;SDS011;19550;42.872;25.494;2023-03-20T10:31:05;11.00;;;5.20;;
33184;SDS011;19550;42.872;25.494;2023-03-20T10:33:46;57.47;;;25.00;;
33184;SDS011;19550;42.872;25.494;2023-03-20T10:36:24;5.82;;;4.18;;
33184;SDS011;19550;42.872;25.494;2023-03-20T10:39:08;10.18;;;4.57;;
33184;SDS011;19550;42.872;25.494;2023-03-20T10:41:40;7.53;;;3.13;;
33184;SDS011;19550;42.872;25.494;2023-03-20T10:44:13;4.75;;;3.10;;
33184;SDS011;19550;42.872;25.494;2023-03-20T10:46:47;3.63;;;2.70;;
33184;SDS011;19550;42.872;25.494;2023-03-20T10:49:20;4.88;;;3.25;;
33184;SDS011;19550;42.872;25.494;2023-03-20T10:51:56;4.25;;;3.17;;
33184;SDS011;19550;42.872;25.494;2023-03-20T10:54:27;7.63;;;3.22;;
33184;SDS011;19550;42.872;25.494;2023-03-20T10:56:57;5.43;;;3.75;;
33184;SDS011;19550;42.872;25.494;2023-03-20T10:59:26;14.60;;;8.90;;
33184;SDS011;19550;42.872;25.494;2023-03-20T11:01:54;11.90;;;7.00;;
33184;SDS011;19550;42.872;25.494;2023-03-20T11:04:21;3.95;;;3.15;;
33184;SDS011;19550;42.872;25.494;2023-03-20T11:06:50;5.72;;;3.10;;
33184;SDS011;19550;42.872;25.494;2023-03-20T11:09:23;4.20;;;3.20;;
33184;SDS011;19550;42.872;25.494;2023-03-20T11:11:55;4.75;;;2.97;;
33184;SDS011;19550;42.872;25.494;2023-03-20T11:14:24;3.65;;;2.72;;
33184;SDS011;19550;42.872;25.494;2023-03-20T11:16:52;5.90;;;3.03;;
33184;SDS011;19550;42.872;25.494;2023-03-20T11:19:21;4.45;;;3.05;;
33184;SDS011;19550;42.872;25.494;2023-03-20T11:21:50;3.00;;;2.38;;
33184;SDS011;19550;42.872;25.494;2023-03-20T11:24:25;4.85;;;2.80;;
33184;SDS011;19550;42.872;25.494;2023-03-20T11:27:04;4.53;;;3.20;;
33184;SDS011;19550;42.872;25.494;2023-03-20T11:29:32;3.53;;;3.00;;
33184;SDS011;19550;42.872;25.494;2023-03-20T11:32:03;8.80;;;5.03;;
33184;SDS011;19550;42.872;25.494;2023-03-20T11:34:34;3.72;;;3.00;;
33184;SDS011;19550;42.872;25.494;2023-03-20T11:37:05;3.75;;;3.00;;
33184;SDS011;19550;42.872;25.494;2023-03-20T11:39:51;6.38;;;4.18;;
33184;SDS011;19550;42.872;25.494;2023-03-20T11:42:24;5.25;;;3.15;;
33184;SDS011;19550;42.872;25.494;2023-03-20T11:44:55;4.50;;;3.22;;
33184;SDS011;19550;42.872;25.494;2023-03-20T11:47:25;3.95;;;3.22;;
33184;SDS011;19550;42.872;25.494;2023-03-20T11:49:54;11.30;;;5.53;;
33184;SDS011;19550;42.872;25.494;2023-03-20T11:52:23;4.80;;;3.90;;
33184;SDS011;19550;42.872;25.494;2023-03-20T11:54:53;21.15;;;11.80;;
33184;SDS011;19550;42.872;25.494;2023-03-20T11:57:30;8.68;;;4.13;;
33184;SDS011;19550;42.872;25.494;2023-03-20T12:00:00;4.85;;;3.30;;
33184;SDS011;19550;42.872;25.494;2023-03-20T12:02:30;3.65;;;2.90;;
33184;SDS011;19550;42.872;25.494;2023-03-20T12:04:58;7.55;;;4.63;;
33184;SDS011;19550;42.872;25.494;2023-03-20T12:07:26;20.40;;;8.95;;
33184;SDS011;19550;42.872;25.494;2023-03-20T12:09:57;14.27;;;7.63;;
33184;SDS011;19550;42.872;25.494;2023-03-20T12:12:32;12.30;;;5.30;;
33184;SDS011;19550;42.872;25.494;2023-03-20T12:15:04;3.97;;;2.97;;
33184;SDS011;19550;42.872;25.494;2023-03-20T12:17:45;5.28;;;3.63;;
33184;SDS011;19550;42.872;25.494;2023-03-20T12:20:19;10.75;;;4.97;;
33184;SDS011;19550;42.872;25.494;2023-03-20T12:22:55;4.30;;;3.03;;
33184;SDS011;19550;42.872;25.494;2023-03-20T12:25:34;4.47;;;3.30;;
33184;SDS011;19550;42.872;25.494;2023-03-20T12:28:09;4.72;;;3.40;;
33184;SDS011;19550;42.872;25.494;2023-03-20T12:30:49;5.43;;;3.35;;
33184;SDS011;19550;42.872;25.494;2023-03-20T12:33:27;5.40;;;3.50;;
33184;SDS011;19550;42.872;25.494;2023-03-20T12:36:11;5.90;;;3.42;;
33184;SDS011;19550;42.872;25.494;2023-03-20T12:38:40;12.20;;;5.80;;
33184;SDS011;19550;42.872;25.494;2023-03-20T12:41:10;7.38;;;3.90;;
33184;SDS011;19550;42.872;25.494;2023-03-20T12:43:54;6.78;;;4.28;;
33184;SDS011;19550;42.872;25.494;2023-03-20T12:46:39;15.02;;;7.05;;
33184;SDS011;19550;42.872;25.494;2023-03-20T12:49:15;9.07;;;4.70;;
33184;SDS011;19550;42.872;25.494;2023-03-20T12:51:53;6.57;;;4.07;;
33184;SDS011;19550;42.872;25.494;2023-03-20T12:54:44;8.43;;;4.95;;
33184;SDS011;19550;42.872;25.494;2023-03-20T12:57:25;5.72;;;4.28;;
33184;SDS011;19550;42.872;25.494;2023-03-20T13:00:07;12.50;;;8.85;;
33184;SDS011;19550;42.872;25.494;2023-03-20T13:02:48;6.60;;;4.85;;
33184;SDS011;19550;42.872;25.494;2023-03-20T13:05:27;9.32;;;4.20;;
33184;SDS011;19550;42.872;25.494;2023-03-20T13:08:06;10.63;;;5.68;;
33184;SDS011;19550;42.872;25.494;2023-03-20T13:10:57;8.57;;;5.40;;
33184;SDS011;19550;42.872;25.494;2023-03-20T13:13:29;9.60;;;4.75;;
33184;SDS011;19550;42.872;25.494;2023-03-20T13:16:06;9.40;;;6.30;;
33184;SDS011;19550;42.872;25.494;2023-03-20T13:18:44;20.83;;;9.90;;
33184;SDS011;19550;42.872;25.494;2023-03-20T13:21:22;10.57;;;6.88;;
33184;SDS011;19550;42.872;25.494;2023-03-20T13:23:55;6.45;;;4.50;;
33184;SDS011;19550;42.872;25.494;2023-03-20T13:26:32;9.82;;;5.70;;
33184;SDS011;19550;42.872;25.494;2023-03-20T13:29:04;8.00;;;5.22;;
33184;SDS011;19550;42.872;25.494;2023-03-20T13:31:48;5.53;;;4.50;;
33184;SDS011;19550;42.872;25.494;2023-03-20T13:34:27;7.97;;;5.50;;
33184;SDS011;19550;42.872;25.494;2023-03-20T13:37:06;7.32;;;5.47;;
33184;SDS011;19550;42.872;25.494;2023-03-20T13:39:39;8.77;;;6.53;;
33184;SDS011;19550;42.872;25.494;2023-03-20T13:42:11;11.20;;;6.60;;
33184;SDS011;19550;42.872;25.494;2023-03-20T13:44:41;7.43;;;5.47;;
33184;SDS011;19550;42.872;25.494;2023-03-20T13:47:12;6.20;;;4.22;;
33184;SDS011;19550;42.872;25.494;2023-03-20T13:49:43;6.80;;;4.07;;
33184;SDS011;19550;42.872;25.494;2023-03-20T13:52:20;7.80;;;5.13;;
33184;SDS011;19550;42.872;25.494;2023-03-20T13:54:55;11.75;;;5.38;;
33184;SDS011;19550;42.872;25.494;2023-03-20T13:57:45;7.78;;;5.03;;
33184;SDS011;19550;42.872;25.494;2023-03-20T14:00:26;9.00;;;5.55;;
33184;SDS011;19550;42.872;25.494;2023-03-20T14:03:07;8.10;;;5.20;;
33184;SDS011;19550;42.872;25.494;2023-03-20T14:05:43;7.75;;;6.20;;
33184;SDS011;19550;42.872;25.494;2023-03-20T14:11:07;77.30;;;51.92;;
33184;SDS011;19550;42.872;25.494;2023-03-20T14:13:41;8.98;;;6.82;;
33184;SDS011;19550;42.872;25.494;2023-03-20T14:16:12;11.73;;;6.95;;
33184;SDS011;19550;42.872;25.494;2023-03-20T14:18:44;7.38;;;4.45;;
33184;SDS011;19550;42.872;25.494;2023-03-20T14:21:14;9.93;;;5.93;;
33184;SDS011;19550;42.872;25.494;2023-03-20T14:23:46;10.48;;;5.30;;
33184;SDS011;19550;42.872;25.494;2023-03-20T14:26:19;19.40;;;11.00;;
33184;SDS011;19550;42.872;25.494;2023-03-20T14:28:51;10.05;;;7.10;;
33184;SDS011;19550;42.872;25.494;2023-03-20T14:31:25;6.60;;;4.82;;
33184;SDS011;19550;42.872;25.494;2023-03-20T14:34:06;7.10;;;5.32;;
33184;SDS011;19550;42.872;25.494;2023-03-20T14:36:49;12.52;;;8.75;;
33184;SDS011;19550;42.872;25.494;2023-03-20T14:39:35;8.65;;;4.53;;
33184;SDS011;19550;42.872;25.494;2023-03-20T14:42:21;8.55;;;4.53;;
33184;SDS011;19550;42.872;25.494;2023-03-20T14:45:01;11.07;;;6.38;;
33184;SDS011;19550;42.872;25.494;2023-03-20T14:47:44;12.23;;;7.43;;
33184;SDS011;19550;42.872;25.494;2023-03-20T14:50:17;9.55;;;6.75;;
33184;SDS011;19550;42.872;25.494;2023-03-20T14:52:52;7.93;;;5.70;;
33184;SDS011;19550;42.872;25.494;2023-03-20T14:55:30;10.40;;;6.35;;
33184;SDS011;19550;42.872;25.494;2023-03-20T14:58:02;8.18;;;5.90;;
33184;SDS011;19550;42.872;25.494;2023-03-20T15:00:33;11.88;;;7.32;;